Time;durP1;ratioP1;P1;durP2;ratioP2;P2;SDS_P1;SDS_P2;PMS_P1;PMS_P2;Temp;Humidity;BMP_temperature;BMP_pressure;BME280_temperature;BME280_humidity;BME280_pressure;Samples;Min_cycle;Max_cycle;Signal;HPM_P1;HPM_P2
2021/07/23 00:01:21;;;;;;;23.70;13.73;;;;;;;;;;3579786;40;20064;-59
2021/07/23 00:03:48;;;;;;;22.10;12.87;;;;;;;;;;3575958;40;20421;-59
2021/07/23 00:06:13;;;;;;;23.25;13.70;;;;;;;;;;3577532;40;20033;-60
2021/07/23 00:08:38;;;;;;;23.45;13.32;;;;;;;;;;3575666;40;20107;-67
2021/07/23 00:11:03;;;;;;;22.47;12.30;;;;;;;;;;3576182;40;20041;-59
2021/07/23 00:13:28;;;;;;;23.33;12.80;;;;;;;;;;3576642;40;20035;-59
2021/07/23 00:15:54;;;;;;;21.17;12.10;;;;;;;;;;3576584;40;20275;-59
2021/07/23 00:18:19;;;;;;;22.60;12.10;;;;;;;;;;3578090;40;20072;-59
2021/07/23 00:20:44;;;;;;;20.70;12.88;;;;;;;;;;3575690;40;20092;-59
2021/07/23 00:23:10;;;;;;;25.55;13.50;;;;;;;;;;3575804;40;20077;-59
2021/07/23 00:25:35;;;;;;;22.53;13.27;;;;;;;;;;3576342;40;20500;-59
2021/07/23 00:28:01;;;;;;;26.63;14.43;;;;;;;;;;3576701;40;20040;-59
2021/07/23 00:30:27;;;;;;;24.30;13.80;;;;;;;;;;3576443;40;20035;-59
2021/07/23 00:32:52;;;;;;;26.17;13.93;;;;;;;;;;3577152;40;20299;-59
2021/07/23 00:35:18;;;;;;;25.35;15.00;;;;;;;;;;3576009;40;20126;-59
2021/07/23 00:37:43;;;;;;;27.52;16.20;;;;;;;;;;3577058;40;20040;-59
2021/07/23 00:40:08;;;;;;;29.00;15.82;;;;;;;;;;3575978;40;20094;-60
2021/07/23 00:42:34;;;;;;;28.30;15.83;;;;;;;;;;3576383;40;20095;-67
2021/07/23 00:45:00;;;;;;;30.52;17.42;;;;;;;;;;3579140;40;20033;-59
2021/07/23 00:47:25;;;;;;;28.13;15.73;;;;;;;;;;3566880;40;20056;-67
2021/07/23 00:49:52;;;;;;;28.77;15.65;;;;;;;;;;3578363;40;20029;-66
2021/07/23 00:52:17;;;;;;;26.92;15.75;;;;;;;;;;3579667;40;20029;-67
2021/07/23 00:54:43;;;;;;;24.50;14.52;;;;;;;;;;3579672;40;20031;-67
2021/07/23 00:57:08;;;;;;;25.73;14.25;;;;;;;;;;3577863;40;20025;-68
2021/07/23 00:59:34;;;;;;;24.20;14.53;;;;;;;;;;3576668;40;20423;-67
2021/07/23 01:01:59;;;;;;;22.10;12.82;;;;;;;;;;3575501;40;20209;-67
2021/07/23 01:04:25;;;;;;;25.40;14.25;;;;;;;;;;3576777;40;20020;-67
2021/07/23 01:06:50;;;;;;;23.90;14.45;;;;;;;;;;3575445;40;20040;-67
2021/07/23 01:09:16;;;;;;;26.60;14.48;;;;;;;;;;3578821;40;20876;-67
2021/07/23 01:11:41;;;;;;;25.08;14.27;;;;;;;;;;3578078;40;20465;-67
2021/07/23 01:14:39;;;;;;;21.08;12.95;;;;;;;;;;3574915;40;20193;-67
2021/07/23 01:17:04;;;;;;;23.10;13.40;;;;;;;;;;3574694;40;20632;-67
2021/07/23 01:19:29;;;;;;;21.70;13.27;;;;;;;;;;3576458;40;20114;-67
2021/07/23 01:21:56;;;;;;;25.02;13.82;;;;;;;;;;3576079;40;20040;-67
2021/07/23 01:24:21;;;;;;;23.77;14.47;;;;;;;;;;3575135;40;20306;-67
2021/07/23 01:26:47;;;;;;;29.50;15.68;;;;;;;;;;3576386;40;20338;-66
2021/07/23 01:29:15;;;;;;;30.85;15.95;;;;;;;;;;3577978;40;20121;-67
2021/07/23 01:31:41;;;;;;;31.90;17.05;;;;;;;;;;3576487;40;20052;-67
2021/07/23 01:34:06;;;;;;;30.63;17.40;;;;;;;;;;3578600;40;20066;-67
2021/07/23 01:36:32;;;;;;;31.45;17.40;;;;;;;;;;3566711;40;20634;-67
2021/07/23 01:38:57;;;;;;;31.47;16.97;;;;;;;;;;3578575;40;20045;-66
2021/07/23 01:41:23;;;;;;;28.08;17.30;;;;;;;;;;3578593;40;20052;-67
2021/07/23 01:43:50;;;;;;;29.08;16.60;;;;;;;;;;3578832;40;20036;-67
2021/07/23 01:46:15;;;;;;;32.53;17.65;;;;;;;;;;3574998;40;20052;-67
2021/07/23 01:48:43;;;;;;;33.15;17.77;;;;;;;;;;3576879;40;20043;-67
2021/07/23 01:51:29;;;;;;;;;;;;;;;;;;3579753;40;20047;-67
2021/07/23 01:53:54;;;;;;;22.47;13.53;;;;;;;;;;3575417;40;19932;-67
2021/07/23 01:56:21;;;;;;;19.50;12.20;;;;;;;;;;3578338;40;20337;-67
2021/07/23 01:58:48;;;;;;;20.55;12.75;;;;;;;;;;3575102;40;20073;-67
2021/07/23 02:01:14;;;;;;;27.77;13.98;;;;;;;;;;3579065;40;20707;-67
2021/07/23 02:03:51;;;;;;;23.70;13.98;;;;;;;;;;3579604;40;20037;-67
2021/07/23 02:06:17;;;;;;;24.90;14.80;;;;;;;;;;3575037;40;20036;-67
2021/07/23 02:08:42;;;;;;;29.30;16.17;;;;;;;;;;3575808;40;20700;-67
2021/07/23 02:11:08;;;;;;;24.88;15.40;;;;;;;;;;3567044;40;20432;-67
2021/07/23 02:13:34;;;;;;;23.98;14.68;;;;;;;;;;3579332;40;20032;-67
2021/07/23 02:16:01;;;;;;;19.45;12.60;;;;;;;;;;3578721;40;20513;-67
2021/07/23 02:18:27;;;;;;;22.35;13.95;;;;;;;;;;3579847;40;20037;-67
2021/07/23 02:20:53;;;;;;;24.33;14.15;;;;;;;;;;3576897;40;20048;-67
2021/07/23 02:23:19;;;;;;;27.10;15.82;;;;;;;;;;3575876;40;20122;-67
2021/07/23 02:25:44;;;;;;;29.90;17.38;;;;;;;;;;3577448;40;20689;-67
2021/07/23 02:28:11;;;;;;;28.60;16.58;;;;;;;;;;3578463;40;20070;-67
2021/07/23 02:30:39;;;;;;;34.00;18.33;;;;;;;;;;3575803;40;20032;-68
2021/07/23 02:33:34;;;;;;;30.45;17.65;;;;;;;;;;3575025;40;20036;-68
2021/07/23 02:36:17;;;;;;;31.25;16.58;;;;;;;;;;3578965;40;20398;-67
2021/07/23 02:38:43;;;;;;;30.08;15.13;;;;;;;;;;3579496;40;20122;-67
2021/07/23 02:41:12;;;;;;;29.30;15.65;;;;;;;;;;3579477;40;20059;-67
2021/07/23 02:43:37;;;;;;;21.13;13.07;;;;;;;;;;3579015;40;20750;-67
2021/07/23 02:46:04;;;;;;;23.92;13.60;;;;;;;;;;3578957;40;20094;-67
2021/07/23 02:48:29;;;;;;;21.83;14.07;;;;;;;;;;3579619;40;20048;-67
2021/07/23 02:50:55;;;;;;;24.00;12.43;;;;;;;;;;3576854;40;20029;-67
2021/07/23 02:53:21;;;;;;;20.13;12.10;;;;;;;;;;3576337;40;20102;-67
2021/07/23 02:55:48;;;;;;;17.27;10.77;;;;;;;;;;3578985;40;20025;-67
2021/07/23 02:58:13;;;;;;;18.85;12.13;;;;;;;;;;3576983;40;20497;-67
2021/07/23 03:00:39;;;;;;;18.33;11.18;;;;;;;;;;3575187;40;20575;-67
2021/07/23 03:03:06;;;;;;;20.35;11.27;;;;;;;;;;3579369;40;20405;-67
2021/07/23 03:05:31;;;;;;;20.63;12.00;;;;;;;;;;3579025;40;20052;-67
2021/07/23 03:07:59;;;;;;;20.90;12.05;;;;;;;;;;3577857;40;20486;-67
2021/07/23 03:10:28;;;;;;;22.95;12.23;;;;;;;;;;3578044;40;20117;-67
2021/07/23 03:12:53;;;;;;;19.77;11.60;;;;;;;;;;3578829;40;20377;-67
2021/07/23 03:15:19;;;;;;;21.63;13.43;;;;;;;;;;3579373;40;20290;-66
2021/07/23 03:17:47;;;;;;;22.15;12.82;;;;;;;;;;3578647;40;20044;-67
2021/07/23 03:20:12;;;;;;;23.08;13.10;;;;;;;;;;3578043;40;20060;-67
2021/07/23 03:22:39;;;;;;;22.63;12.82;;;;;;;;;;3576708;40;20040;-67
2021/07/23 03:25:11;;;;;;;25.70;13.32;;;;;;;;;;3576844;40;20042;-67
2021/07/23 03:27:55;;;;;;;22.83;12.32;;;;;;;;;;3576739;40;20345;-67
2021/07/23 03:30:28;;;;;;;26.15;12.82;;;;;;;;;;3579075;40;20031;-67
2021/07/23 03:32:56;;;;;;;19.92;12.20;;;;;;;;;;3579381;40;20043;-68
2021/07/23 03:35:21;;;;;;;19.63;12.43;;;;;;;;;;3577864;40;20041;-67
2021/07/23 03:37:47;;;;;;;19.98;12.25;;;;;;;;;;3574199;40;20703;-67
2021/07/23 03:40:20;;;;;;;18.48;11.20;;;;;;;;;;3578256;40;20044;-67
2021/07/23 03:42:46;;;;;;;21.33;11.88;;;;;;;;;;3579389;40;20041;-67
2021/07/23 03:45:20;;;;;;;15.02;10.40;;;;;;;;;;3575695;40;20702;-67
2021/07/23 03:47:57;;;;;;;20.67;11.90;;;;;;;;;;3577343;40;20033;-67
2021/07/23 03:50:23;;;;;;;17.77;11.32;;;;;;;;;;3576506;40;20029;-67
2021/07/23 03:52:57;;;;;;;19.95;11.43;;;;;;;;;;3575714;40;20048;-68
2021/07/23 03:55:41;;;;;;;22.83;11.75;;;;;;;;;;3577371;40;20069;-66
2021/07/23 03:58:07;;;;;;;21.55;12.48;;;;;;;;;;3578058;40;20380;-67
2021/07/23 04:00:36;;;;;;;19.08;12.18;;;;;;;;;;3575785;40;20036;-68
2021/07/23 04:03:02;;;;;;;21.60;12.93;;;;;;;;;;3577689;40;20025;-59
2021/07/23 04:05:28;;;;;;;22.10;13.45;;;;;;;;;;3578092;40;20027;-59
2021/07/23 04:07:57;;;;;;;19.42;12.30;;;;;;;;;;3580620;40;20044;-59
2021/07/23 04:10:25;;;;;;;18.70;12.32;;;;;;;;;;3579019;40;20134;-59
2021/07/23 04:12:50;;;;;;;21.85;13.00;;;;;;;;;;3581702;40;20067;-59
2021/07/23 04:15:16;;;;;;;22.85;11.60;;;;;;;;;;3579879;40;20461;-59
2021/07/23 04:18:04;;;;;;;19.25;11.88;;;;;;;;;;3577091;40;20508;-59
2021/07/23 04:20:30;;;;;;;18.73;11.93;;;;;;;;;;3576837;40;20037;-60
2021/07/23 04:22:56;;;;;;;19.77;12.82;;;;;;;;;;3578733;40;20037;-59
2021/07/23 04:25:21;;;;;;;19.23;11.80;;;;;;;;;;3576485;40;20032;-59
2021/07/23 04:27:46;;;;;;;20.33;12.87;;;;;;;;;;3578776;40;20039;-59
2021/07/23 04:30:17;;;;;;;26.35;14.10;;;;;;;;;;3578882;40;20286;-59
2021/07/23 04:33:01;;;;;;;25.73;12.38;;;;;;;;;;3580281;40;20129;-59
2021/07/23 04:35:28;;;;;;;24.08;12.73;;;;;;;;;;3578938;40;20040;-59
2021/07/23 04:37:54;;;;;;;31.13;12.38;;;;;;;;;;3576813;40;20569;-59
2021/07/23 04:40:40;;;;;;;19.35;11.15;;;;;;;;;;3577315;40;20632;-59
2021/07/23 04:43:11;;;;;;;23.70;13.13;;;;;;;;;;3576355;40;20028;-59
2021/07/23 04:45:37;;;;;;;18.08;12.50;;;;;;;;;;3578393;40;20086;-59
2021/07/23 04:48:04;;;;;;;22.08;13.95;;;;;;;;;;3580059;40;20120;-59
2021/07/23 04:50:39;;;;;;;;;;;;;;;;;;3580314;40;20070;-60
2021/07/23 04:53:23;;;;;;;25.35;13.70;;;;;;;;;;3578976;40;19982;-59
2021/07/23 04:56:20;;;;;;;26.48;14.52;;;;;;;;;;3577183;40;20040;-59
2021/07/23 04:58:45;;;;;;;20.77;12.97;;;;;;;;;;3579861;40;20033;-59
2021/07/23 05:01:11;;;;;;;24.20;12.93;;;;;;;;;;3577001;40;20410;-60
2021/07/23 05:03:39;;;;;;;23.37;14.07;;;;;;;;;;3576621;40;20247;-59
2021/07/23 05:06:05;;;;;;;20.38;12.95;;;;;;;;;;3584932;40;20153;-59
2021/07/23 05:08:31;;;;;;;19.80;12.93;;;;;;;;;;3577921;40;20029;-59
2021/07/23 05:10:56;;;;;;;19.85;12.90;;;;;;;;;;3577896;40;20673;-59
2021/07/23 05:13:22;;;;;;;24.00;13.05;;;;;;;;;;3577648;40;20037;-59
2021/07/23 05:15:47;;;;;;;27.60;13.40;;;;;;;;;;3578796;40;20060;-59
2021/07/23 05:18:12;;;;;;;25.30;13.38;;;;;;;;;;3580466;40;20032;-59
2021/07/23 05:20:38;;;;;;;21.57;13.13;;;;;;;;;;3577424;40;20297;-59
2021/07/23 05:23:03;;;;;;;22.00;12.83;;;;;;;;;;3578924;40;20263;-59
2021/07/23 05:25:28;;;;;;;22.67;14.00;;;;;;;;;;3579004;40;20302;-59
2021/07/23 05:27:53;;;;;;;24.05;13.35;;;;;;;;;;3577782;40;20714;-59
2021/07/23 05:30:19;;;;;;;21.37;12.60;;;;;;;;;;3578509;40;20036;-59
2021/07/23 05:32:44;;;;;;;21.27;13.35;;;;;;;;;;3576882;40;20266;-60
2021/07/23 05:35:09;;;;;;;23.87;13.37;;;;;;;;;;3578712;40;20024;-59
2021/07/23 05:37:34;;;;;;;19.27;12.50;;;;;;;;;;3579374;40;20037;-59
2021/07/23 05:40:00;;;;;;;21.07;12.73;;;;;;;;;;3579836;40;20161;-59
2021/07/23 05:42:25;;;;;;;20.10;12.80;;;;;;;;;;3578022;40;20247;-59
2021/07/23 05:44:50;;;;;;;22.77;14.03;;;;;;;;;;3578310;40;20273;-59
2021/07/23 05:47:15;;;;;;;24.07;13.10;;;;;;;;;;3579775;40;20060;-59
2021/07/23 05:49:40;;;;;;;24.03;13.83;;;;;;;;;;3578535;40;20278;-59
2021/07/23 05:52:06;;;;;;;28.93;14.47;;;;;;;;;;3579396;40;20627;-59
2021/07/23 05:54:31;;;;;;;21.92;14.38;;;;;;;;;;3579219;40;20029;-59
2021/07/23 05:56:56;;;;;;;23.57;12.90;;;;;;;;;;3575220;40;20036;-59
2021/07/23 05:59:21;;;;;;;21.77;12.80;;;;;;;;;;3579811;40;20028;-59
2021/07/23 06:01:47;;;;;;;22.93;13.40;;;;;;;;;;3577096;40;20029;-59
2021/07/23 06:04:12;;;;;;;24.43;13.90;;;;;;;;;;3580149;40;20102;-60
2021/07/23 06:06:37;;;;;;;21.63;13.63;;;;;;;;;;3574410;40;20033;-59
2021/07/23 06:09:03;;;;;;;20.38;12.23;;;;;;;;;;3577484;40;20044;-60
2021/07/23 06:11:28;;;;;;;25.15;12.57;;;;;;;;;;3578068;40;20123;-60
2021/07/23 06:13:53;;;;;;;26.67;12.70;;;;;;;;;;3577703;40;20044;-59
2021/07/23 06:16:18;;;;;;;22.40;13.27;;;;;;;;;;3576786;40;20080;-59
2021/07/23 06:18:43;;;;;;;19.03;12.37;;;;;;;;;;3578207;40;20105;-60
2021/07/23 06:21:08;;;;;;;23.93;13.17;;;;;;;;;;3574986;40;20049;-59
2021/07/23 06:23:34;;;;;;;22.37;13.50;;;;;;;;;;3578957;40;20141;-61
2021/07/23 06:25:59;;;;;;;20.27;13.33;;;;;;;;;;3579827;40;20033;-59
2021/07/23 06:28:24;;;;;;;25.77;14.07;;;;;;;;;;3578018;40;20460;-60
2021/07/23 06:30:49;;;;;;;24.63;13.13;;;;;;;;;;3574652;40;20532;-59
2021/07/23 06:33:15;;;;;;;19.87;12.47;;;;;;;;;;3577671;40;20029;-59
2021/07/23 06:35:40;;;;;;;22.90;13.20;;;;;;;;;;3576814;40;20310;-60
2021/07/23 06:38:05;;;;;;;22.27;12.43;;;;;;;;;;3577268;40;20064;-60
2021/07/23 06:40:30;;;;;;;27.57;13.07;;;;;;;;;;3577592;40;20033;-59
2021/07/23 06:42:55;;;;;;;26.33;13.23;;;;;;;;;;3575353;40;20662;-60
2021/07/23 06:45:20;;;;;;;31.37;14.13;;;;;;;;;;3577262;40;20073;-60
2021/07/23 06:47:46;;;;;;;22.43;12.67;;;;;;;;;;3575038;40;20068;-60
2021/07/23 06:50:11;;;;;;;22.17;12.40;;;;;;;;;;3576682;40;20254;-60
2021/07/23 06:52:36;;;;;;;25.87;13.23;;;;;;;;;;3573360;40;20029;-60
2021/07/23 06:55:01;;;;;;;22.77;14.20;;;;;;;;;;3576776;40;20545;-59
2021/07/23 06:57:27;;;;;;;20.20;12.53;;;;;;;;;;3578032;40;20037;-60
2021/07/23 06:59:53;;;;;;;29.33;14.07;;;;;;;;;;3575796;40;20263;-63
2021/07/23 07:02:18;;;;;;;19.45;12.05;;;;;;;;;;3576671;40;20082;-63
2021/07/23 07:04:44;;;;;;;27.73;16.57;;;;;;;;;;3574841;40;20037;-63
2021/07/23 07:07:11;;;;;;;18.75;11.55;;;;;;;;;;3575948;40;20033;-63
2021/07/23 07:09:36;;;;;;;26.27;13.27;;;;;;;;;;3576220;40;20059;-63
2021/07/23 07:12:01;;;;;;;19.07;11.93;;;;;;;;;;3576925;40;20088;-64
2021/07/23 07:14:27;;;;;;;20.47;11.93;;;;;;;;;;3578027;40;20381;-63
2021/07/23 07:16:53;;;;;;;18.63;11.90;;;;;;;;;;3574521;40;20038;-63
2021/07/23 07:19:18;;;;;;;22.08;12.52;;;;;;;;;;3576026;40;20376;-63
2021/07/23 07:21:49;;;;;;;34.27;15.80;;;;;;;;;;3573460;40;20048;-63
2021/07/23 07:24:14;;;;;;;21.42;12.88;;;;;;;;;;3569796;40;20296;-64
2021/07/23 07:26:40;;;;;;;20.27;12.63;;;;;;;;;;3576251;40;20040;-63
2021/07/23 07:29:05;;;;;;;18.00;11.43;;;;;;;;;;3575108;40;20036;-63
2021/07/23 07:31:30;;;;;;;21.40;11.00;;;;;;;;;;3574390;40;20037;-63
2021/07/23 07:33:55;;;;;;;18.33;10.60;;;;;;;;;;3578075;40;20045;-63
2021/07/23 07:36:20;;;;;;;16.27;10.50;;;;;;;;;;3576993;40;20021;-64
2021/07/23 07:38:46;;;;;;;19.27;11.47;;;;;;;;;;3578486;40;20512;-64
2021/07/23 07:41:11;;;;;;;20.10;10.83;;;;;;;;;;3576998;40;20118;-63
2021/07/23 07:43:36;;;;;;;21.03;11.53;;;;;;;;;;3580107;40;20398;-63
2021/07/23 07:46:01;;;;;;;15.83;10.47;;;;;;;;;;3578073;40;20540;-63
2021/07/23 07:48:27;;;;;;;18.00;10.00;;;;;;;;;;3579337;40;20063;-63
2021/07/23 07:50:52;;;;;;;19.40;9.65;;;;;;;;;;3576632;40;20276;-63
2021/07/23 07:53:17;;;;;;;19.90;9.33;;;;;;;;;;3577376;40;20028;-62
2021/07/23 07:55:43;;;;;;;22.93;10.43;;;;;;;;;;3575439;40;20623;-64
2021/07/23 07:58:08;;;;;;;19.48;10.85;;;;;;;;;;3575789;40;20348;-64
2021/07/23 08:00:33;;;;;;;36.10;19.47;;;;;;;;;;3578490;40;20036;-63
2021/07/23 08:02:58;;;;;;;20.33;12.10;;;;;;;;;;3575686;40;20037;-64
2021/07/23 08:05:24;;;;;;;28.03;16.00;;;;;;;;;;3577100;40;20036;-63
2021/07/23 08:07:50;;;;;;;28.10;13.33;;;;;;;;;;3580040;40;20032;-63
2021/07/23 08:10:16;;;;;;;14.88;9.07;;;;;;;;;;3578322;40;20273;-63
2021/07/23 08:12:41;;;;;;;23.70;11.50;;;;;;;;;;3576841;40;20029;-64
2021/07/23 08:15:06;;;;;;;25.50;13.47;;;;;;;;;;3579224;40;20087;-63
2021/07/23 08:17:31;;;;;;;18.67;8.83;;;;;;;;;;3576102;40;20273;-62
2021/07/23 08:19:57;;;;;;;12.00;8.37;;;;;;;;;;3577776;40;20029;-64
2021/07/23 08:22:22;;;;;;;14.38;8.13;;;;;;;;;;3577501;40;20036;-63
2021/07/23 08:24:47;;;;;;;13.67;7.67;;;;;;;;;;3577041;40;20065;-64
2021/07/23 08:27:15;;;;;;;16.95;7.57;;;;;;;;;;3578374;40;20037;-63
2021/07/23 08:29:41;;;;;;;15.55;8.30;;;;;;;;;;3577281;40;20030;-63
2021/07/23 08:32:06;;;;;;;13.37;7.77;;;;;;;;;;3579327;40;20028;-64
2021/07/23 08:34:31;;;;;;;16.00;8.03;;;;;;;;;;3575572;40;20329;-63
2021/07/23 08:36:56;;;;;;;12.60;7.60;;;;;;;;;;3576121;40;20086;-63
2021/07/23 08:39:21;;;;;;;13.73;6.97;;;;;;;;;;3580118;40;20028;-63
2021/07/23 08:41:47;;;;;;;13.33;7.27;;;;;;;;;;3576528;40;20068;-63
2021/07/23 08:44:12;;;;;;;11.17;6.67;;;;;;;;;;3577184;40;20031;-63
2021/07/23 08:46:37;;;;;;;18.83;7.43;;;;;;;;;;3577876;40;20134;-63
2021/07/23 08:49:02;;;;;;;17.15;6.07;;;;;;;;;;3578000;40;20631;-63
2021/07/23 08:51:28;;;;;;;11.60;6.50;;;;;;;;;;3577102;40;20017;-63
2021/07/23 08:53:53;;;;;;;9.53;5.37;;;;;;;;;;3575773;40;20028;-61
2021/07/23 08:56:18;;;;;;;12.77;6.38;;;;;;;;;;3577068;40;20110;-63
2021/07/23 08:58:43;;;;;;;8.70;5.40;;;;;;;;;;3578804;40;20043;-63
2021/07/23 09:01:09;;;;;;;14.20;6.97;;;;;;;;;;3576962;40;20040;-63
2021/07/23 09:03:34;;;;;;;10.03;6.07;;;;;;;;;;3579328;40;20945;-63
2021/07/23 09:06:00;;;;;;;9.45;6.15;;;;;;;;;;3576068;40;20101;-64
2021/07/23 09:08:25;;;;;;;13.80;5.43;;;;;;;;;;3579392;40;20024;-63
2021/07/23 09:10:50;;;;;;;8.90;6.03;;;;;;;;;;3577698;40;20123;-62
2021/07/23 09:13:16;;;;;;;9.88;4.82;;;;;;;;;;3575253;40;20025;-63
2021/07/23 09:15:41;;;;;;;10.18;4.68;;;;;;;;;;3577535;40;20103;-64
2021/07/23 09:18:07;;;;;;;7.93;4.90;;;;;;;;;;3575878;40;20025;-63
2021/07/23 09:20:32;;;;;;;13.52;4.93;;;;;;;;;;3577069;40;20055;-63
2021/07/23 09:22:57;;;;;;;10.57;7.17;;;;;;;;;;3579156;40;20380;-64
2021/07/23 09:25:22;;;;;;;8.75;4.95;;;;;;;;;;3578745;40;20860;-63
2021/07/23 09:27:48;;;;;;;8.40;4.97;;;;;;;;;;3579052;40;20787;-63
2021/07/23 09:30:13;;;;;;;12.70;5.47;;;;;;;;;;3578734;40;20029;-63
2021/07/23 09:32:38;;;;;;;13.83;5.03;;;;;;;;;;3579795;40;20102;-63
2021/07/23 09:35:03;;;;;;;8.57;5.10;;;;;;;;;;3578406;40;20126;-63
2021/07/23 09:37:29;;;;;;;9.30;4.40;;;;;;;;;;3578654;40;20658;-63
2021/07/23 09:39:54;;;;;;;6.82;4.45;;;;;;;;;;3578708;40;20505;-63
2021/07/23 09:42:19;;;;;;;11.93;4.57;;;;;;;;;;3577858;40;20066;-63
2021/07/23 09:44:45;;;;;;;9.17;5.10;;;;;;;;;;3575447;40;20094;-63
2021/07/23 09:47:11;;;;;;;8.43;4.60;;;;;;;;;;3577393;40;20569;-63
2021/07/23 09:49:36;;;;;;;8.55;4.70;;;;;;;;;;3578903;40;20051;-63
2021/07/23 09:52:02;;;;;;;9.97;4.47;;;;;;;;;;3580536;40;20362;-63
2021/07/23 09:54:27;;;;;;;12.38;5.03;;;;;;;;;;3578783;40;20073;-63
2021/07/23 09:56:52;;;;;;;11.97;5.03;;;;;;;;;;3578374;40;20127;-63
2021/07/23 09:59:17;;;;;;;10.57;4.90;;;;;;;;;;3578393;40;20029;-63
2021/07/23 10:01:43;;;;;;;9.87;5.00;;;;;;;;;;3576964;40;20037;-63
2021/07/23 10:04:08;;;;;;;10.20;5.40;;;;;;;;;;3576413;40;20040;-63
2021/07/23 10:06:33;;;;;;;10.37;5.10;;;;;;;;;;3579179;40;20616;-63
2021/07/23 10:08:58;;;;;;;9.13;5.03;;;;;;;;;;3579454;40;20425;-63
2021/07/23 10:11:24;;;;;;;13.33;5.70;;;;;;;;;;3577208;40;20029;-63
2021/07/23 10:13:49;;;;;;;16.93;5.47;;;;;;;;;;3579544;40;20036;-63
2021/07/23 10:16:14;;;;;;;12.53;6.30;;;;;;;;;;3576650;40;20066;-63
2021/07/23 10:18:39;;;;;;;11.10;6.13;;;;;;;;;;3579399;40;20032;-63
2021/07/23 10:21:04;;;;;;;16.57;5.03;;;;;;;;;;3579122;40;20916;-63
2021/07/23 10:23:31;;;;;;;7.87;4.20;;;;;;;;;;3579227;40;20040;-63
2021/07/23 10:25:56;;;;;;;12.63;6.38;;;;;;;;;;3577067;40;20043;-63
2021/07/23 10:28:21;;;;;;;8.97;5.27;;;;;;;;;;3578362;40;20037;-63
2021/07/23 10:30:46;;;;;;;12.30;5.10;;;;;;;;;;3579291;40;20520;-63
2021/07/23 10:33:11;;;;;;;10.17;4.73;;;;;;;;;;3578826;40;20035;-63
2021/07/23 10:35:38;;;;;;;11.20;5.07;;;;;;;;;;3577432;40;20172;-63
2021/07/23 10:38:03;;;;;;;11.90;5.00;;;;;;;;;;3577737;40;20583;-63
2021/07/23 10:40:28;;;;;;;11.27;5.23;;;;;;;;;;3578869;40;20021;-63
2021/07/23 10:42:53;;;;;;;13.77;5.67;;;;;;;;;;3577394;40;20036;-63
2021/07/23 10:45:19;;;;;;;9.30;5.00;;;;;;;;;;3577146;40;20507;-63
2021/07/23 10:47:44;;;;;;;11.20;5.32;;;;;;;;;;3576584;40;20040;-63
2021/07/23 10:50:10;;;;;;;10.17;5.80;;;;;;;;;;3578917;40;20450;-64
2021/07/23 10:52:36;;;;;;;13.20;6.17;;;;;;;;;;3576093;40;20036;-63
2021/07/23 10:55:02;;;;;;;17.85;5.90;;;;;;;;;;3579057;40;20139;-63
2021/07/23 10:57:27;;;;;;;10.30;5.30;;;;;;;;;;3578775;40;20038;-63
2021/07/23 10:59:52;;;;;;;13.27;5.70;;;;;;;;;;3577720;40;20049;-63
2021/07/23 11:02:19;;;;;;;17.75;8.18;;;;;;;;;;3578275;40;20496;-63
2021/07/23 11:04:44;;;;;;;14.57;5.80;;;;;;;;;;3578752;40;20024;-64
2021/07/23 11:07:09;;;;;;;15.60;5.93;;;;;;;;;;3578042;40;20040;-63
2021/07/23 11:09:34;;;;;;;14.50;5.70;;;;;;;;;;3575354;40;20045;-63
2021/07/23 11:11:59;;;;;;;12.27;6.07;;;;;;;;;;3577310;40;20410;-63
2021/07/23 11:14:25;;;;;;;12.53;5.13;;;;;;;;;;3577699;40;20021;-63
2021/07/23 11:16:50;;;;;;;12.90;5.57;;;;;;;;;;3576179;40;20109;-63
2021/07/23 11:19:15;;;;;;;12.57;5.30;;;;;;;;;;3577982;40;20360;-63
2021/07/23 11:21:41;;;;;;;8.63;5.23;;;;;;;;;;3577384;40;20262;-63
2021/07/23 11:24:06;;;;;;;10.47;4.87;;;;;;;;;;3579668;40;20182;-63
2021/07/23 11:26:31;;;;;;;8.23;4.87;;;;;;;;;;3578622;40;20508;-63
2021/07/23 11:28:56;;;;;;;9.13;5.13;;;;;;;;;;3579331;40;20035;-63
2021/07/23 11:31:26;;;;;;;12.80;5.95;;;;;;;;;;3578847;40;20118;-64
2021/07/23 11:33:51;;;;;;;9.57;5.75;;;;;;;;;;3578552;40;20110;-63
2021/07/23 11:36:17;;;;;;;10.77;5.70;;;;;;;;;;3581108;40;20376;-63
2021/07/23 11:38:42;;;;;;;11.23;5.60;;;;;;;;;;3578418;40;20275;-62
2021/07/23 11:41:08;;;;;;;9.15;5.10;;;;;;;;;;3575290;40;20845;-63
2021/07/23 11:43:33;;;;;;;9.07;4.93;;;;;;;;;;3580846;40;20047;-63
2021/07/23 11:45:58;;;;;;;8.88;5.07;;;;;;;;;;3578139;40;20322;-63
2021/07/23 11:48:23;;;;;;;8.83;4.90;;;;;;;;;;3579464;40;20655;-63
2021/07/23 11:50:49;;;;;;;14.97;6.60;;;;;;;;;;3578994;40;20033;-64
2021/07/23 11:53:14;;;;;;;10.83;5.43;;;;;;;;;;3578425;40;20032;-63
2021/07/23 11:55:39;;;;;;;12.97;5.17;;;;;;;;;;3579704;40;20081;-64
2021/07/23 11:58:04;;;;;;;11.88;5.50;;;;;;;;;;3579191;40;20044;-64
2021/07/23 12:00:30;;;;;;;9.90;5.00;;;;;;;;;;3575628;40;20029;-64
2021/07/23 12:02:55;;;;;;;11.48;6.22;;;;;;;;;;3580025;40;20025;-64
2021/07/23 12:05:21;;;;;;;10.77;5.77;;;;;;;;;;3575468;40;20125;-64
2021/07/23 12:07:46;;;;;;;14.87;5.77;;;;;;;;;;3577917;40;20417;-63
2021/07/23 12:10:12;;;;;;;14.40;4.82;;;;;;;;;;3577507;40;20060;-64
2021/07/23 12:12:37;;;;;;;14.33;5.50;;;;;;;;;;3577173;40;20044;-63
2021/07/23 12:15:02;;;;;;;16.53;5.73;;;;;;;;;;3576616;40;20390;-63
2021/07/23 12:17:27;;;;;;;15.02;6.00;;;;;;;;;;3576448;40;20518;-63
2021/07/23 12:19:53;;;;;;;11.77;5.23;;;;;;;;;;3578367;40;20029;-63
2021/07/23 12:22:18;;;;;;;10.30;5.20;;;;;;;;;;3579993;40;20671;-62
2021/07/23 12:24:43;;;;;;;12.37;5.53;;;;;;;;;;3577228;40;20028;-63
2021/07/23 12:27:08;;;;;;;10.53;5.33;;;;;;;;;;3577738;40;20517;-64
2021/07/23 12:29:33;;;;;;;27.37;15.63;;;;;;;;;;3578364;40;20645;-65
2021/07/23 12:31:59;;;;;;;17.03;6.60;;;;;;;;;;3579438;40;20037;-63
2021/07/23 12:34:25;;;;;;;16.50;6.60;;;;;;;;;;3579827;40;20043;-63
2021/07/23 12:36:51;;;;;;;11.30;6.10;;;;;;;;;;3576682;40;20069;-62
2021/07/23 12:39:16;;;;;;;13.43;5.70;;;;;;;;;;3574519;40;20029;-62
2021/07/23 12:41:41;;;;;;;13.03;6.10;;;;;;;;;;3579430;40;20529;-64
2021/07/23 12:44:06;;;;;;;14.40;5.90;;;;;;;;;;3577720;40;20035;-63
2021/07/23 12:46:32;;;;;;;12.87;6.23;;;;;;;;;;3577732;40;20033;-63
2021/07/23 12:48:57;;;;;;;11.00;6.20;;;;;;;;;;3579757;40;20618;-63
2021/07/23 12:51:22;;;;;;;12.23;6.10;;;;;;;;;;3578684;40;20031;-63
2021/07/23 12:53:47;;;;;;;8.10;5.47;;;;;;;;;;3579824;40;20330;-63
2021/07/23 12:56:13;;;;;;;10.57;5.43;;;;;;;;;;3579202;40;20031;-63
2021/07/23 12:58:38;;;;;;;19.23;5.60;;;;;;;;;;3579768;40;20035;-63
2021/07/23 13:01:03;;;;;;;9.00;4.50;;;;;;;;;;3578211;40;20028;-59
2021/07/23 13:03:28;;;;;;;8.17;4.70;;;;;;;;;;3578812;40;20032;-61
2021/07/23 13:05:54;;;;;;;13.00;5.57;;;;;;;;;;3578868;40;20036;-59
2021/07/23 13:08:19;;;;;;;10.07;6.10;;;;;;;;;;3575770;40;20529;-59
2021/07/23 13:10:44;;;;;;;24.50;13.60;;;;;;;;;;3577357;40;20051;-59
2021/07/23 13:13:09;;;;;;;10.63;5.30;;;;;;;;;;3576735;40;20024;-59
2021/07/23 13:15:35;;;;;;;46.40;26.03;;;;;;;;;;3577605;40;20809;-59
2021/07/23 13:18:00;;;;;;;12.53;5.80;;;;;;;;;;3575620;40;20025;-59
2021/07/23 13:20:25;;;;;;;16.30;5.03;;;;;;;;;;3573380;40;20040;-60
2021/07/23 13:22:50;;;;;;;8.47;4.90;;;;;;;;;;3578791;40;20706;-60
2021/07/23 13:25:15;;;;;;;9.90;4.27;;;;;;;;;;3577808;40;20017;-59
2021/07/23 13:27:42;;;;;;;7.80;4.67;;;;;;;;;;3578967;40;20295;-59
2021/07/23 13:30:07;;;;;;;11.50;6.55;;;;;;;;;;3577734;40;20097;-59
2021/07/23 13:32:32;;;;;;;14.47;6.23;;;;;;;;;;3579173;40;20395;-59
2021/07/23 13:34:57;;;;;;;24.83;15.83;;;;;;;;;;3578138;40;20402;-59
2021/07/23 13:37:23;;;;;;;9.70;5.70;;;;;;;;;;3577115;40;20381;-59
2021/07/23 13:39:48;;;;;;;8.40;4.80;;;;;;;;;;3577235;40;20440;-59
2021/07/23 13:42:13;;;;;;;8.43;4.87;;;;;;;;;;3576428;40;20037;-60
2021/07/23 13:44:38;;;;;;;7.57;4.37;;;;;;;;;;3577592;40;20693;-59
2021/07/23 13:47:03;;;;;;;7.00;4.53;;;;;;;;;;3577625;40;20098;-59
2021/07/23 13:49:29;;;;;;;8.23;4.23;;;;;;;;;;3576269;40;20031;-60
2021/07/23 13:51:54;;;;;;;8.43;4.60;;;;;;;;;;3575405;40;20028;-60
2021/07/23 13:54:19;;;;;;;7.03;4.03;;;;;;;;;;3577508;40;20031;-60
2021/07/23 13:56:44;;;;;;;9.97;4.10;;;;;;;;;;3579962;40;20036;-59
2021/07/23 13:59:11;;;;;;;8.90;4.23;;;;;;;;;;3577472;40;20032;-59
2021/07/23 14:01:36;;;;;;;12.70;5.10;;;;;;;;;;3579710;40;20032;-59
2021/07/23 14:04:01;;;;;;;9.27;4.40;;;;;;;;;;3575639;40;20032;-59
2021/07/23 14:06:27;;;;;;;5.10;3.67;;;;;;;;;;3576324;40;20283;-59
2021/07/23 14:08:54;;;;;;;6.93;4.13;;;;;;;;;;3576756;40;20025;-60
2021/07/23 14:11:19;;;;;;;6.13;4.18;;;;;;;;;;3576124;40;20029;-60
2021/07/23 14:13:44;;;;;;;7.47;4.10;;;;;;;;;;3576352;40;20049;-60
2021/07/23 14:16:09;;;;;;;13.80;4.67;;;;;;;;;;3575544;40;20765;-59
2021/07/23 14:18:34;;;;;;;8.90;4.47;;;;;;;;;;3579259;40;20480;-59
2021/07/23 14:21:00;;;;;;;7.20;4.17;;;;;;;;;;3576993;40;20462;-60